sensor_id;sensor_type;location;lat;lon;timestamp;temperature;humidity
17968;DHT22;9109;48.050;11.696;2023-07-31T03:46:40;17.90;99.90
17968;DHT22;9109;48.050;11.696;2023-07-31T03:49:57;17.90;99.90
17968;DHT22;9109;48.050;11.696;2023-07-31T03:53:26;17.80;99.90
17968;DHT22;9109;48.050;11.696;2023-07-31T03:56:41;17.80;99.90
17968;DHT22;9109;48.050;11.696;2023-07-31T04:00:23;17.90;99.90
17968;DHT22;9109;48.050;11.696;2023-07-31T04:03:45;17.90;99.90
17968;DHT22;9109;48.050;11.696;2023-07-31T04:06:57;17.80;99.90
17968;DHT22;9109;48.050;11.696;2023-07-31T04:13:33;17.60;99.90
17968;DHT22;9109;48.050;11.696;2023-07-31T04:20:32;17.50;99.90
17968;DHT22;9109;48.050;11.696;2023-07-31T04:23:34;17.60;99.90
17968;DHT22;9109;48.050;11.696;2023-07-31T04:26:36;17.60;99.90
17968;DHT22;9109;48.050;11.696;2023-07-31T04:29:39;17.80;99.90
17968;DHT22;9109;48.050;11.696;2023-07-31T04:32:47;17.90;99.90
17968;DHT22;9109;48.050;11.696;2023-07-31T04:35:52;17.90;99.90
17968;DHT22;9109;48.050;11.696;2023-07-31T04:39:16;17.90;99.90
17968;DHT22;9109;48.050;11.696;2023-07-31T04:42:44;17.90;99.90
17968;DHT22;9109;48.050;11.696;2023-07-31T04:46:03;17.90;99.90
17968;DHT22;9109;48.050;11.696;2023-07-31T04:49:06;17.90;99.90
17968;DHT22;9109;48.050;11.696;2023-07-31T04:56:04;17.90;99.90
17968;DHT22;9109;48.050;11.696;2023-07-31T04:59:06;17.90;99.90
17968;DHT22;9109;48.050;11.696;2023-07-31T05:02:08;18.00;99.90
17968;DHT22;9109;48.050;11.696;2023-07-31T05:05:10;18.00;99.90
17968;DHT22;9109;48.050;11.696;2023-07-31T05:08:12;18.00;99.90
17968;DHT22;9109;48.050;11.696;2023-07-31T05:11:18;17.90;99.90
17968;DHT22;9109;48.050;11.696;2023-07-31T05:14:20;17.90;99.90
17968;DHT22;9109;48.050;11.696;2023-07-31T05:17:21;17.90;99.90
17968;DHT22;9109;48.050;11.696;2023-07-31T05:20:23;17.90;99.90
17968;DHT22;9109;48.050;11.696;2023-07-31T05:23:27;18.00;99.90
17968;DHT22;9109;48.050;11.696;2023-07-31T05:26:31;18.00;99.90
17968;DHT22;9109;48.050;11.696;2023-07-31T05:29:33;18.10;99.90
17968;DHT22;9109;48.050;11.696;2023-07-31T05:32:35;18.10;99.90
17968;DHT22;9109;48.050;11.696;2023-07-31T05:35:37;18.10;99.90
17968;DHT22;9109;48.050;11.696;2023-07-31T05:38:39;18.20;99.90
17968;DHT22;9109;48.050;11.696;2023-07-31T05:41:42;18.20;99.90
17968;DHT22;9109;48.050;11.696;2023-07-31T05:44:44;18.30;99.90
17968;DHT22;9109;48.050;11.696;2023-07-31T05:47:46;18.50;99.90
17968;DHT22;9109;48.050;11.696;2023-07-31T05:50:48;18.60;99.90
17968;DHT22;9109;48.050;11.696;2023-07-31T05:53:50;18.60;99.90
17968;DHT22;9109;48.050;11.696;2023-07-31T05:56:53;18.60;99.90
17968;DHT22;9109;48.050;11.696;2023-07-31T05:59:59;18.70;99.90
17968;DHT22;9109;48.050;11.696;2023-07-31T06:03:03;18.80;99.90
17968;DHT22;9109;48.050;11.696;2023-07-31T06:06:06;18.80;99.90
17968;DHT22;9109;48.050;11.696;2023-07-31T06:09:09;18.80;99.90
17968;DHT22;9109;48.050;11.696;2023-07-31T06:12:13;18.90;99.90
17968;DHT22;9109;48.050;11.696;2023-07-31T06:15:19;19.00;99.90
17968;DHT22;9109;48.050;11.696;2023-07-31T06:18:21;19.00;99.90
17968;DHT22;9109;48.050;11.696;2023-07-31T06:21:23;19.10;99.90
17968;DHT22;9109;48.050;11.696;2023-07-31T06:24:25;19.20;99.90
17968;DHT22;9109;48.050;11.696;2023-07-31T06:27:28;19.30;99.90
17968;DHT22;9109;48.050;11.696;2023-07-31T06:30:30;19.40;99.90
17968;DHT22;9109;48.050;11.696;2023-07-31T06:33:32;19.40;99.90
17968;DHT22;9109;48.050;11.696;2023-07-31T06:36:34;19.40;99.90
17968;DHT22;9109;48.050;11.696;2023-07-31T06:39:36;19.30;99.90
17968;DHT22;9109;48.050;11.696;2023-07-31T06:42:40;19.30;99.90
17968;DHT22;9109;48.050;11.696;2023-07-31T06:45:42;19.30;99.90
17968;DHT22;9109;48.050;11.696;2023-07-31T06:48:44;19.30;99.90
17968;DHT22;9109;48.050;11.696;2023-07-31T06:51:46;19.30;99.90
17968;DHT22;9109;48.050;11.696;2023-07-31T06:55:01;19.30;99.90
17968;DHT22;9109;48.050;11.696;2023-07-31T06:58:22;19.30;99.90
17968;DHT22;9109;48.050;11.696;2023-07-31T07:01:38;19.20;99.90
17968;DHT22;9109;48.050;11.696;2023-07-31T07:04:40;19.30;99.90
17968;DHT22;9109;48.050;11.696;2023-07-31T07:07:42;19.30;99.90
17968;DHT22;9109;48.050;11.696;2023-07-31T07:10:47;19.40;99.90
17968;DHT22;9109;48.050;11.696;2023-07-31T07:13:58;19.50;99.90
17968;DHT22;9109;48.050;11.696;2023-07-31T07:17:09;19.60;99.90
17968;DHT22;9109;48.050;11.696;2023-07-31T07:20:12;19.70;99.90
17968;DHT22;9109;48.050;11.696;2023-07-31T07:23:14;19.70;99.90
17968;DHT22;9109;48.050;11.696;2023-07-31T07:26:16;19.80;99.90
17968;DHT22;9109;48.050;11.696;2023-07-31T07:29:20;19.90;99.90
17968;DHT22;9109;48.050;11.696;2023-07-31T07:32:25;19.80;99.90
17968;DHT22;9109;48.050;11.696;2023-07-31T07:35:36;19.90;99.90
17968;DHT22;9109;48.050;11.696;2023-07-31T07:38:39;20.00;99.90
17968;DHT22;9109;48.050;11.696;2023-07-31T07:41:46;20.10;99.90
17968;DHT22;9109;48.050;11.696;2023-07-31T07:45:02;20.10;99.90
17968;DHT22;9109;48.050;11.696;2023-07-31T07:48:13;20.20;99.50
17968;DHT22;9109;48.050;11.696;2023-07-31T07:51:26;20.20;99.70
17968;DHT22;9109;48.050;11.696;2023-07-31T07:54:30;20.30;99.50
17968;DHT22;9109;48.050;11.696;2023-07-31T07:57:35;20.40;99.20
17968;DHT22;9109;48.050;11.696;2023-07-31T08:00:48;20.40;98.30
17968;DHT22;9109;48.050;11.696;2023-07-31T08:03:57;20.40;99.00
17968;DHT22;9109;48.050;11.696;2023-07-31T08:07:03;20.60;99.90
17968;DHT22;9109;48.050;11.696;2023-07-31T08:10:10;20.70;98.50
17968;DHT22;9109;48.050;11.696;2023-07-31T08:13:27;20.70;97.80
17968;DHT22;9109;48.050;11.696;2023-07-31T08:17:05;20.70;97.00
17968;DHT22;9109;48.050;11.696;2023-07-31T08:20:15;20.60;97.70
17968;DHT22;9109;48.050;11.696;2023-07-31T08:23:18;20.60;96.20
17968;DHT22;9109;48.050;11.696;2023-07-31T08:26:20;20.60;96.40
17968;DHT22;9109;48.050;11.696;2023-07-31T08:29:22;20.60;97.10
17968;DHT22;9109;48.050;11.696;2023-07-31T08:32:26;20.70;96.30
17968;DHT22;9109;48.050;11.696;2023-07-31T08:35:34;20.70;96.40
17968;DHT22;9109;48.050;11.696;2023-07-31T08:38:39;20.70;95.10
17968;DHT22;9109;48.050;11.696;2023-07-31T08:41:41;20.80;95.70
17968;DHT22;9109;48.050;11.696;2023-07-31T08:44:44;21.00;96.20
17968;DHT22;9109;48.050;11.696;2023-07-31T08:47:49;21.00;95.00
17968;DHT22;9109;48.050;11.696;2023-07-31T08:50:52;21.10;94.50
17968;DHT22;9109;48.050;11.696;2023-07-31T08:53:55;21.20;94.70
17968;DHT22;9109;48.050;11.696;2023-07-31T08:56:58;21.40;94.50
17968;DHT22;9109;48.050;11.696;2023-07-31T09:00:07;21.30;93.80
17968;DHT22;9109;48.050;11.696;2023-07-31T09:03:24;21.30;93.60
17968;DHT22;9109;48.050;11.696;2023-07-31T09:06:28;21.30;92.90
17968;DHT22;9109;48.050;11.696;2023-07-31T09:09:32;21.10;91.10
17968;DHT22;9109;48.050;11.696;2023-07-31T09:12:36;21.00;91.50
17968;DHT22;9109;48.050;11.696;2023-07-31T09:15:39;21.00;93.10
17968;DHT22;9109;48.050;11.696;2023-07-31T09:19:10;21.00;94.10
17968;DHT22;9109;48.050;11.696;2023-07-31T09:22:13;21.10;93.10
17968;DHT22;9109;48.050;11.696;2023-07-31T09:28:31;21.40;92.80
17968;DHT22;9109;48.050;11.696;2023-07-31T09:31:38;21.50;93.00
17968;DHT22;9109;48.050;11.696;2023-07-31T09:34:42;21.50;93.30
17968;DHT22;9109;48.050;11.696;2023-07-31T09:37:47;21.70;92.30
17968;DHT22;9109;48.050;11.696;2023-07-31T09:40:49;21.80;92.20
17968;DHT22;9109;48.050;11.696;2023-07-31T09:43:54;22.00;90.10
17968;DHT22;9109;48.050;11.696;2023-07-31T09:46:56;22.10;90.90
17968;DHT22;9109;48.050;11.696;2023-07-31T09:50:01;22.10;89.60
17968;DHT22;9109;48.050;11.696;2023-07-31T09:53:07;21.90;89.40
17968;DHT22;9109;48.050;11.696;2023-07-31T09:56:10;22.10;91.10
17968;DHT22;9109;48.050;11.696;2023-07-31T09:59:16;22.30;87.30
17968;DHT22;9109;48.050;11.696;2023-07-31T10:02:23;22.10;86.60
17968;DHT22;9109;48.050;11.696;2023-07-31T10:05:31;22.10;88.60
17968;DHT22;9109;48.050;11.696;2023-07-31T10:08:36;22.10;87.90
17968;DHT22;9109;48.050;11.696;2023-07-31T10:11:44;22.20;87.00
17968;DHT22;9109;48.050;11.696;2023-07-31T10:14:52;22.20;86.70
17968;DHT22;9109;48.050;11.696;2023-07-31T10:17:55;22.40;90.20
17968;DHT22;9109;48.050;11.696;2023-07-31T10:20:59;22.60;90.10
17968;DHT22;9109;48.050;11.696;2023-07-31T10:24:03;22.80;87.90
17968;DHT22;9109;48.050;11.696;2023-07-31T10:27:07;23.00;85.70
17968;DHT22;9109;48.050;11.696;2023-07-31T10:30:15;23.10;85.60
17968;DHT22;9109;48.050;11.696;2023-07-31T10:33:19;23.20;83.10
17968;DHT22;9109;48.050;11.696;2023-07-31T10:36:23;23.40;83.00
17968;DHT22;9109;48.050;11.696;2023-07-31T10:42:30;23.50;79.40
17968;DHT22;9109;48.050;11.696;2023-07-31T10:45:34;23.60;83.00
17968;DHT22;9109;48.050;11.696;2023-07-31T10:48:39;23.80;80.70
17968;DHT22;9109;48.050;11.696;2023-07-31T10:51:43;23.90;78.20
17968;DHT22;9109;48.050;11.696;2023-07-31T10:54:45;23.90;75.10
17968;DHT22;9109;48.050;11.696;2023-07-31T10:57:48;23.80;76.60
17968;DHT22;9109;48.050;11.696;2023-07-31T11:00:55;23.80;76.50
17968;DHT22;9109;48.050;11.696;2023-07-31T11:03:59;23.80;78.40
17968;DHT22;9109;48.050;11.696;2023-07-31T11:07:04;23.90;79.20
17968;DHT22;9109;48.050;11.696;2023-07-31T11:10:11;23.90;76.70
17968;DHT22;9109;48.050;11.696;2023-07-31T11:13:13;23.80;75.40
17968;DHT22;9109;48.050;11.696;2023-07-31T11:16:16;24.10;77.70
17968;DHT22;9109;48.050;11.696;2023-07-31T11:19:21;24.30;79.00
17968;DHT22;9109;48.050;11.696;2023-07-31T11:22:25;24.20;72.40
17968;DHT22;9109;48.050;11.696;2023-07-31T11:25:29;24.10;77.10
17968;DHT22;9109;48.050;11.696;2023-07-31T11:28:32;24.00;75.80
17968;DHT22;9109;48.050;11.696;2023-07-31T11:31:42;23.90;74.20
17968;DHT22;9109;48.050;11.696;2023-07-31T11:34:51;23.60;74.60
17968;DHT22;9109;48.050;11.696;2023-07-31T11:37:55;23.70;77.40
17968;DHT22;9109;48.050;11.696;2023-07-31T11:40:58;23.90;78.20
17968;DHT22;9109;48.050;11.696;2023-07-31T11:44:00;24.10;75.90
17968;DHT22;9109;48.050;11.696;2023-07-31T11:47:03;24.20;75.40
17968;DHT22;9109;48.050;11.696;2023-07-31T11:50:07;24.30;75.80
17968;DHT22;9109;48.050;11.696;2023-07-31T11:53:13;24.50;75.50
17968;DHT22;9109;48.050;11.696;2023-07-31T11:56:18;24.60;71.50
17968;DHT22;9109;48.050;11.696;2023-07-31T11:59:20;24.80;74.30
17968;DHT22;9109;48.050;11.696;2023-07-31T12:02:22;24.60;71.00
17968;DHT22;9109;48.050;11.696;2023-07-31T12:05:24;24.50;71.60
17968;DHT22;9109;48.050;11.696;2023-07-31T12:08:27;24.60;69.80
17968;DHT22;9109;48.050;11.696;2023-07-31T12:11:29;24.60;66.70
17968;DHT22;9109;48.050;11.696;2023-07-31T12:14:31;24.50;69.30
17968;DHT22;9109;48.050;11.696;2023-07-31T12:17:33;24.90;73.60
17968;DHT22;9109;48.050;11.696;2023-07-31T12:20:39;24.90;68.00
17968;DHT22;9109;48.050;11.696;2023-07-31T12:23:47;25.10;73.10
17968;DHT22;9109;48.050;11.696;2023-07-31T12:26:49;25.20;72.80
17968;DHT22;9109;48.050;11.696;2023-07-31T12:29:52;25.40;71.10
17968;DHT22;9109;48.050;11.696;2023-07-31T12:32:54;25.50;68.50
17968;DHT22;9109;48.050;11.696;2023-07-31T12:35:57;25.50;70.30
17968;DHT22;9109;48.050;11.696;2023-07-31T12:39:00;25.20;70.20
17968;DHT22;9109;48.050;11.696;2023-07-31T12:42:02;25.20;70.30
17968;DHT22;9109;48.050;11.696;2023-07-31T12:45:09;25.20;70.90
17968;DHT22;9109;48.050;11.696;2023-07-31T12:48:33;25.30;66.00
17968;DHT22;9109;48.050;11.696;2023-07-31T12:51:35;25.40;68.10
17968;DHT22;9109;48.050;11.696;2023-07-31T12:54:39;25.70;71.40
17968;DHT22;9109;48.050;11.696;2023-07-31T12:57:41;26.20;68.90
17968;DHT22;9109;48.050;11.696;2023-07-31T13:00:43;26.10;67.20
17968;DHT22;9109;48.050;11.696;2023-07-31T13:03:47;25.90;66.40
17968;DHT22;9109;48.050;11.696;2023-07-31T13:06:49;25.70;67.30
17968;DHT22;9109;48.050;11.696;2023-07-31T13:09:53;25.50;67.70
17968;DHT22;9109;48.050;11.696;2023-07-31T13:12:55;25.30;64.50
17968;DHT22;9109;48.050;11.696;2023-07-31T13:15:57;25.10;63.70
17968;DHT22;9109;48.050;11.696;2023-07-31T13:19:01;25.00;64.80
17968;DHT22;9109;48.050;11.696;2023-07-31T13:22:06;25.20;66.20
17968;DHT22;9109;48.050;11.696;2023-07-31T13:25:09;25.40;66.40
17968;DHT22;9109;48.050;11.696;2023-07-31T13:28:11;25.60;65.70
17968;DHT22;9109;48.050;11.696;2023-07-31T13:31:15;25.70;65.40
17968;DHT22;9109;48.050;11.696;2023-07-31T13:34:18;25.70;65.20
17968;DHT22;9109;48.050;11.696;2023-07-31T13:37:20;25.70;65.90
17968;DHT22;9109;48.050;11.696;2023-07-31T13:40:26;25.50;61.50
17968;DHT22;9109;48.050;11.696;2023-07-31T13:43:28;25.60;66.30
17968;DHT22;9109;48.050;11.696;2023-07-31T13:46:30;25.70;68.40
17968;DHT22;9109;48.050;11.696;2023-07-31T13:49:33;25.90;66.10
17968;DHT22;9109;48.050;11.696;2023-07-31T13:52:39;26.00;61.40
17968;DHT22;9109;48.050;11.696;2023-07-31T13:55:42;26.30;64.80
17968;DHT22;9109;48.050;11.696;2023-07-31T13:58:46;26.60;65.30
17968;DHT22;9109;48.050;11.696;2023-07-31T14:01:48;26.70;65.70
17968;DHT22;9109;48.050;11.696;2023-07-31T14:04:50;26.60;61.00
17968;DHT22;9109;48.050;11.696;2023-07-31T14:07:52;26.50;63.60
17968;DHT22;9109;48.050;11.696;2023-07-31T14:10:55;26.50;60.90
17968;DHT22;9109;48.050;11.696;2023-07-31T14:13:57;26.20;59.70
17968;DHT22;9109;48.050;11.696;2023-07-31T14:16:59;26.00;58.40
17968;DHT22;9109;48.050;11.696;2023-07-31T14:20:01;26.00;60.10
17968;DHT22;9109;48.050;11.696;2023-07-31T14:23:03;26.00;60.50
17968;DHT22;9109;48.050;11.696;2023-07-31T14:26:09;25.90;60.60
17968;DHT22;9109;48.050;11.696;2023-07-31T14:29:11;25.90;58.30
17968;DHT22;9109;48.050;11.696;2023-07-31T14:32:13;25.70;59.50
17968;DHT22;9109;48.050;11.696;2023-07-31T14:35:15;25.50;58.50
17968;DHT22;9109;48.050;11.696;2023-07-31T14:46:05;25.80;61.50
17968;DHT22;9109;48.050;11.696;2023-07-31T14:49:07;25.70;61.70
17968;DHT22;9109;48.050;11.696;2023-07-31T14:52:09;25.90;61.00
17968;DHT22;9109;48.050;11.696;2023-07-31T14:55:11;26.00;61.60
17968;DHT22;9109;48.050;11.696;2023-07-31T14:58:12;26.00;59.90
17968;DHT22;9109;48.050;11.696;2023-07-31T15:01:16;25.90;60.30
17968;DHT22;9109;48.050;11.696;2023-07-31T15:04:18;25.80;59.30
17968;DHT22;9109;48.050;11.696;2023-07-31T15:07:22;25.70;60.30
17968;DHT22;9109;48.050;11.696;2023-07-31T15:10:24;25.70;61.10
17968;DHT22;9109;48.050;11.696;2023-07-31T15:13:26;25.70;59.50
17968;DHT22;9109;48.050;11.696;2023-07-31T15:16:29;25.60;59.50
17968;DHT22;9109;48.050;11.696;2023-07-31T15:19:34;25.50;61.80
17968;DHT22;9109;48.050;11.696;2023-07-31T15:22:37;25.50;61.90
17968;DHT22;9109;48.050;11.696;2023-07-31T15:25:39;25.40;61.80
17968;DHT22;9109;48.050;11.696;2023-07-31T15:28:41;25.40;62.40
17968;DHT22;9109;48.050;11.696;2023-07-31T15:31:44;25.50;62.70
17968;DHT22;9109;48.050;11.696;2023-07-31T15:34:46;25.70;62.90
17968;DHT22;9109;48.050;11.696;2023-07-31T15:37:48;25.80;63.60
17968;DHT22;9109;48.050;11.696;2023-07-31T15:40:51;25.40;60.70
17968;DHT22;9109;48.050;11.696;2023-07-31T15:43:53;25.30;62.20
17968;DHT22;9109;48.050;11.696;2023-07-31T15:46:57;25.10;62.20
17968;DHT22;9109;48.050;11.696;2023-07-31T15:49:59;25.00;62.30
17968;DHT22;9109;48.050;11.696;2023-07-31T15:53:01;24.80;60.50
17968;DHT22;9109;48.050;11.696;2023-07-31T15:56:03;24.60;60.60
17968;DHT22;9109;48.050;11.696;2023-07-31T15:59:07;24.50;62.20
17968;DHT22;9109;48.050;11.696;2023-07-31T16:02:11;24.40;61.90
17968;DHT22;9109;48.050;11.696;2023-07-31T16:05:13;24.40;62.20
17968;DHT22;9109;48.050;11.696;2023-07-31T16:08:15;24.30;64.20
17968;DHT22;9109;48.050;11.696;2023-07-31T16:11:17;24.50;65.60
17968;DHT22;9109;48.050;11.696;2023-07-31T16:14:19;24.60;63.30
17968;DHT22;9109;48.050;11.696;2023-07-31T16:17:22;24.50;63.90
17968;DHT22;9109;48.050;11.696;2023-07-31T16:20:24;24.50;66.00
17968;DHT22;9109;48.050;11.696;2023-07-31T16:23:26;24.60;66.10
17968;DHT22;9109;48.050;11.696;2023-07-31T16:26:28;24.60;65.40
17968;DHT22;9109;48.050;11.696;2023-07-31T16:29:30;24.50;63.00
17968;DHT22;9109;48.050;11.696;2023-07-31T16:32:34;24.40;65.80
17968;DHT22;9109;48.050;11.696;2023-07-31T16:35:36;24.40;67.00
17968;DHT22;9109;48.050;11.696;2023-07-31T16:38:38;24.40;68.80
17968;DHT22;9109;48.050;11.696;2023-07-31T16:41:39;24.40;66.90
17968;DHT22;9109;48.050;11.696;2023-07-31T16:44:41;24.40;68.10
17968;DHT22;9109;48.050;11.696;2023-07-31T16:47:45;24.30;68.50
17968;DHT22;9109;48.050;11.696;2023-07-31T16:50:47;24.20;68.00
17968;DHT22;9109;48.050;11.696;2023-07-31T16:53:49;24.20;67.90
17968;DHT22;9109;48.050;11.696;2023-07-31T16:56:51;24.10;66.60
17968;DHT22;9109;48.050;11.696;2023-07-31T16:59:53;24.00;67.10
17968;DHT22;9109;48.050;11.696;2023-07-31T17:02:56;24.00;68.10
17968;DHT22;9109;48.050;11.696;2023-07-31T17:05:58;24.00;68.60
17968;DHT22;9109;48.050;11.696;2023-07-31T17:09:00;23.90;67.90
17968;DHT22;9109;48.050;11.696;2023-07-31T17:12:03;23.90;69.90
17968;DHT22;9109;48.050;11.696;2023-07-31T17:15:06;23.90;70.10
17968;DHT22;9109;48.050;11.696;2023-07-31T17:18:10;23.90;68.00
17968;DHT22;9109;48.050;11.696;2023-07-31T17:21:12;23.80;68.60
17968;DHT22;9109;48.050;11.696;2023-07-31T17:24:19;23.70;68.20
17968;DHT22;9109;48.050;11.696;2023-07-31T17:27:21;23.70;68.60
17968;DHT22;9109;48.050;11.696;2023-07-31T17:30:27;23.70;70.40
17968;DHT22;9109;48.050;11.696;2023-07-31T17:33:40;23.70;69.60
17968;DHT22;9109;48.050;11.696;2023-07-31T17:36:45;23.70;68.90
17968;DHT22;9109;48.050;11.696;2023-07-31T17:39:49;23.60;69.60
17968;DHT22;9109;48.050;11.696;2023-07-31T17:43:08;23.50;70.20
17968;DHT22;9109;48.050;11.696;2023-07-31T17:46:30;23.50;71.30
17968;DHT22;9109;48.050;11.696;2023-07-31T17:49:35;23.50;70.50
17968;DHT22;9109;48.050;11.696;2023-07-31T17:52:46;23.50;73.50
17968;DHT22;9109;48.050;11.696;2023-07-31T17:55:48;23.50;73.80
17968;DHT22;9109;48.050;11.696;2023-07-31T17:58:50;23.60;74.50
17968;DHT22;9109;48.050;11.696;2023-07-31T18:01:55;23.60;74.70
17968;DHT22;9109;48.050;11.696;2023-07-31T18:04:58;23.60;74.00
17968;DHT22;9109;48.050;11.696;2023-07-31T18:08:00;23.60;74.10
17968;DHT22;9109;48.050;11.696;2023-07-31T18:11:03;23.60;75.90
17968;DHT22;9109;48.050;11.696;2023-07-31T18:14:05;23.50;76.10
17968;DHT22;9109;48.050;11.696;2023-07-31T18:17:07;23.50;77.10
17968;DHT22;9109;48.050;11.696;2023-07-31T18:20:14;23.40;76.40
17968;DHT22;9109;48.050;11.696;2023-07-31T18:23:16;23.40;77.30
17968;DHT22;9109;48.050;11.696;2023-07-31T18:26:21;23.30;79.60
17968;DHT22;9109;48.050;11.696;2023-07-31T18:29:24;23.30;80.60
17968;DHT22;9109;48.050;11.696;2023-07-31T18:32:26;23.20;80.10
17968;DHT22;9109;48.050;11.696;2023-07-31T18:35:29;23.10;78.80
17968;DHT22;9109;48.050;11.696;2023-07-31T18:38:31;23.10;77.70
17968;DHT22;9109;48.050;11.696;2023-07-31T18:41:37;22.90;77.70
17968;DHT22;9109;48.050;11.696;2023-07-31T18:44:56;22.90;77.70
17968;DHT22;9109;48.050;11.696;2023-07-31T18:48:02;22.80;77.40
17968;DHT22;9109;48.050;11.696;2023-07-31T18:51:24;22.80;78.20
17968;DHT22;9109;48.050;11.696;2023-07-31T18:54:40;22.70;77.90
17968;DHT22;9109;48.050;11.696;2023-07-31T18:57:45;22.70;79.00
17968;DHT22;9109;48.050;11.696;2023-07-31T19:00:48;22.70;79.90
17968;DHT22;9109;48.050;11.696;2023-07-31T19:03:50;22.70;78.60
17968;DHT22;9109;48.050;11.696;2023-07-31T19:10:32;22.40;78.00
17968;DHT22;9109;48.050;11.696;2023-07-31T19:13:34;22.30;79.10
17968;DHT22;9109;48.050;11.696;2023-07-31T19:16:36;22.10;79.10
17968;DHT22;9109;48.050;11.696;2023-07-31T19:19:38;22.10;80.20
17968;DHT22;9109;48.050;11.696;2023-07-31T19:22:41;22.00;79.50
17968;DHT22;9109;48.050;11.696;2023-07-31T19:25:45;21.90;79.80
17968;DHT22;9109;48.050;11.696;2023-07-31T19:28:53;21.90;79.70
17968;DHT22;9109;48.050;11.696;2023-07-31T19:55:23;21.60;82.20
17968;DHT22;9109;48.050;11.696;2023-07-31T20:00:03;21.50;84.20
17968;DHT22;9109;48.050;11.696;2023-07-31T20:06:51;21.60;83.70
17968;DHT22;9109;48.050;11.696;2023-07-31T20:09:58;21.50;83.90
17968;DHT22;9109;48.050;11.696;2023-07-31T20:16:54;21.30;82.90
17968;DHT22;9109;48.050;11.696;2023-07-31T20:20:50;21.20;82.70
17968;DHT22;9109;48.050;11.696;2023-07-31T20:24:15;21.20;83.20
17968;DHT22;9109;48.050;11.696;2023-07-31T21:12:24;20.90;89.20
17968;DHT22;9109;48.050;11.696;2023-07-31T21:15:26;20.70;90.60
17968;DHT22;9109;48.050;11.696;2023-07-31T21:18:36;20.60;90.80
17968;DHT22;9109;48.050;11.696;2023-07-31T21:21:49;20.60;90.30
17968;DHT22;9109;48.050;11.696;2023-07-31T21:25:21;20.60;89.40
17968;DHT22;9109;48.050;11.696;2023-07-31T21:29:17;20.70;90.60
17968;DHT22;9109;48.050;11.696;2023-07-31T21:33:13;20.80;90.20
17968;DHT22;9109;48.050;11.696;2023-07-31T21:39:57;20.60;89.10
17968;DHT22;9109;48.050;11.696;2023-07-31T21:47:21;20.70;90.40
17968;DHT22;9109;48.050;11.696;2023-07-31T21:50:52;20.70;91.00
17968;DHT22;9109;48.050;11.696;2023-07-31T21:54:25;20.70;90.60
17968;DHT22;9109;48.050;11.696;2023-07-31T21:57:49;20.70;91.20
17968;DHT22;9109;48.050;11.696;2023-07-31T22:00:55;20.70;90.20
17968;DHT22;9109;48.050;11.696;2023-07-31T22:07:47;20.60;90.00
17968;DHT22;9109;48.050;11.696;2023-07-31T22:11:07;20.50;90.40
17968;DHT22;9109;48.050;11.696;2023-07-31T22:14:22;20.50;90.90
17968;DHT22;9109;48.050;11.696;2023-07-31T22:18:01;20.60;90.80
17968;DHT22;9109;48.050;11.696;2023-07-31T22:21:43;20.70;91.20
17968;DHT22;9109;48.050;11.696;2023-07-31T22:24:51;20.60;90.30
17968;DHT22;9109;48.050;11.696;2023-07-31T22:28:21;20.50;90.60
17968;DHT22;9109;48.050;11.696;2023-07-31T22:32:11;20.40;90.70
17968;DHT22;9109;48.050;11.696;2023-07-31T22:35:33;20.40;90.90
17968;DHT22;9109;48.050;11.696;2023-07-31T22:42:40;20.50;91.60
17968;DHT22;9109;48.050;11.696;2023-07-31T22:45:56;20.40;92.40
17968;DHT22;9109;48.050;11.696;2023-07-31T22:49:07;20.40;93.30
17968;DHT22;9109;48.050;11.696;2023-07-31T22:52:24;20.40;93.80
17968;DHT22;9109;48.050;11.696;2023-07-31T22:55:53;20.30;94.50
17968;DHT22;9109;48.050;11.696;2023-07-31T22:59:03;20.30;94.80
